createdAt,value
2023-04-13T00:09:50.212Z,5.6
2023-04-13T00:29:02.201Z,5.5
2023-04-13T00:48:14.320Z,5.7
2023-04-13T01:07:27.113Z,5.4
2023-04-13T01:26:39.368Z,5.1
2023-04-13T01:45:52.959Z,5.1
2023-04-13T02:05:07.984Z,5
2023-04-13T02:24:15.699Z,5
2023-04-13T02:43:28.316Z,4.9
2023-04-13T03:02:41.445Z,4.8
2023-04-13T03:21:51.873Z,4.8
2023-04-13T03:41:02.764Z,4.9
2023-04-13T04:00:15.109Z,5.6
2023-04-13T04:19:26.770Z,6.1
2023-04-13T04:38:38.960Z,6.2
2023-04-13T04:57:51.586Z,5.9
2023-04-13T05:17:03.659Z,6.7
2023-04-13T05:36:15.436Z,6.7
2023-04-13T05:55:28.658Z,6.4
2023-04-13T06:14:41.950Z,6.5
2023-04-13T06:33:55.658Z,6.6
2023-04-13T06:53:05.720Z,6.7
2023-04-13T07:12:18.762Z,6.6
2023-04-13T07:31:31.015Z,6.6
2023-04-13T07:50:44.019Z,6.8
2023-04-13T08:09:58.799Z,6.4
2023-04-13T08:29:06.047Z,6.4
2023-04-13T08:48:16.997Z,6.1
2023-04-13T09:07:30.741Z,6.9
2023-04-13T09:26:40.977Z,8
2023-04-13T09:45:54.005Z,7.3
2023-04-13T10:05:08.158Z,6.7
2023-04-13T10:24:27.002Z,6.9
2023-04-13T10:43:37.105Z,7.2
2023-04-13T11:02:49.430Z,6.9
2023-04-13T11:21:50.338Z,8.5
2023-04-13T11:41:18.040Z,8.8
2023-04-13T12:00:23.772Z,7
2023-04-13T12:19:36.293Z,6.6
2023-04-13T12:38:45.651Z,6
2023-04-13T12:57:56.021Z,7.5
2023-04-13T13:17:12.572Z,6.2
2023-04-13T13:36:27.640Z,5.4
2023-04-13T13:55:39.663Z,5.1
2023-04-13T14:14:47.386Z,5
2023-04-13T14:33:57.168Z,3.1
2023-04-13T14:53:11.893Z,2.3
2023-04-13T15:12:27.325Z,1.8
2023-04-13T15:31:39.292Z,2.2
2023-04-13T15:50:50.925Z,3
2023-04-13T16:10:04.912Z,3.1
2023-04-13T16:29:14.200Z,2.6
2023-04-13T16:48:26.824Z,2.9
2023-04-13T17:07:38.718Z,2.6
2023-04-13T17:26:50.544Z,2.3
2023-04-13T17:45:58.572Z,3.2
2023-04-13T18:05:09.164Z,3
2023-04-13T18:24:20.114Z,3.8
2023-04-13T18:43:28.835Z,3.2
2023-04-13T19:02:42.690Z,4.1
2023-04-13T19:21:51.694Z,4.4
2023-04-13T19:41:02.083Z,4
2023-04-13T20:00:15.034Z,4.5
2023-04-13T20:19:24.748Z,4.3
2023-04-13T20:38:33.554Z,4.7
2023-04-13T20:57:47.506Z,4.6
2023-04-13T21:17:00.908Z,4.5
2023-04-13T21:55:23.149Z,4.2
2023-04-13T22:14:34.736Z,4.1
2023-04-13T22:33:45.905Z,3.9
2023-04-13T22:52:58.172Z,4.1
2023-04-13T23:12:10.822Z,4.2
2023-04-13T23:31:23.156Z,4
2023-04-13T23:50:34.015Z,4.1
